Van Kinsbergen — PAKB — position and weather

sailwx.info

Track history (hours):
 
Tides and Currents Weather Stations Pressure Air Temp Water Temp Dewpoint Dewpoint Depression Visibility Wind Speed Wind Dir Waves Ship Positions

Van Kinsbergen

Last reported at 2017-Nov-19 18:44 UTC. Time now 2017-Nov-22 03:40 UTC.
Position N 53°29' E 006°50'.

Length 40 m; draft 3.4 m.

Type: Military. MMSI: 244736000.

Date/timePositionNaut miles runAvg speedWind from/ knotsBaromVisibWave heightAir tempDewpointWater temp
2017-Nov-19 18:44N 53°29' E 006°50'2 5.3
2017-Nov-19 18:22N 53°28' E 006°52'2 4.7
2017-Nov-19 18:00N 53°26' E 006°55'3 5.3
2017-Nov-19 17:30N 53°24' E 006°57'3 6.0
2017-Nov-19 17:00N 53°22' E 006°59'3 5.5
2017-Nov-19 16:30N 53°19' E 007°00'2 4.8
2017-Nov-19 16:00N 53°19' E 006°56'1 1.6
2017-Nov-19 15:30N 53°19' E 006°55'0 0.8
2017-Nov-19 14:58N 53°19' E 006°55'0 0.0
2017-Nov-19 14:25N 53°19' E 006°55'0 0.0
2017-Nov-19 13:55N 53°19' E 006°55'0 0.0
2017-Nov-19 13:28N 53°19' E 006°55'0 0.0
2017-Nov-19 12:58N 53°19' E 006°55'0 0.0
2017-Nov-19 12:28N 53°19' E 006°55'0 0.0
2017-Nov-19 11:52N 53°19' E 006°55'0 0.0
2017-Nov-19 11:25N 53°19' E 006°55'0 0.0
2017-Nov-19 10:58N 53°19' E 006°55'0 0.0
2017-Nov-19 10:28N 53°19' E 006°55'0 0.0
2017-Nov-19 09:58N 53°19' E 006°55'0 0.0
2017-Nov-19 09:28N 53°19' E 006°55'  
2017-Nov-16 06:02N 53°19' E 006°55'0 0.0
2017-Nov-16 05:59N 53°19' E 006°55'0 0.0
2017-Nov-16 05:29N 53°19' E 006°55'0 0.0
2017-Nov-16 04:59N 53°19' E 006°55'0 0.0
2017-Nov-16 04:29N 53°19' E 006°55'0 0.0
2017-Nov-16 03:59N 53°19' E 006°55'0 0.0
2017-Nov-16 03:29N 53°19' E 006°55'0 0.0
2017-Nov-16 02:56N 53°19' E 006°55'0 0.0
2017-Nov-16 02:26N 53°19' E 006°55'0 0.0
2017-Nov-16 01:59N 53°19' E 006°55'0 0.0
2017-Nov-16 01:29N 53°19' E 006°55'0 0.0
2017-Nov-16 00:59N 53°19' E 006°55'0 0.0
2017-Nov-16 00:29N 53°19' E 006°55'0 0.0
2017-Nov-15 23:59N 53°19' E 006°55'0 0.0
2017-Nov-15 23:29N 53°19' E 006°55'0 0.0
2017-Nov-15 22:59N 53°19' E 006°55'0 0.0
2017-Nov-15 22:29N 53°19' E 006°55'0 0.0
2017-Nov-15 21:59N 53°19' E 006°55'0 0.0
2017-Nov-15 21:29N 53°19' E 006°55'0 0.0
2017-Nov-15 20:59N 53°19' E 006°55'0 0.0
2017-Nov-15 20:29N 53°19' E 006°55'0 0.0
2017-Nov-15 19:59N 53°19' E 006°55'0 0.0
2017-Nov-15 19:29N 53°19' E 006°55'0 0.0
2017-Nov-15 18:59N 53°19' E 006°55'0 0.0
2017-Nov-15 18:29N 53°19' E 006°55'0 0.0
2017-Nov-15 17:59N 53°19' E 006°55'0 0.0
2017-Nov-15 17:30N 53°19' E 006°55'1 1.7
2017-Nov-15 17:00N 53°19' E 006°56'0 0.8
2017-Nov-15 16:30N 53°19' E 006°57'2 4.7
2017-Nov-15 16:00N 53°21' E 006°59'712.3
2017-Nov-15 15:26N 53°27' E 006°53'39 7.2
2017-Nov-15 10:01N 53°50' E 007°46'012.3
2017-Nov-15 10:00N 53°51' E 007°46'611.4
2017-Nov-15 09:30N 53°54' E 007°54'611.7
2017-Nov-15 09:00N 53°59' E 007°57'5 9.9
2017-Nov-15 08:30N 54°01' E 008°06'611.3
2017-Nov-15 08:00N 54°01' E 008°15'510.8
2017-Nov-15 07:30N 53°60' E 008°24'5 9.7
2017-Nov-15 07:00N 53°58' E 008°32'4 8.9
2017-Nov-15 06:30N 53°57' E 008°39'5 9.7
2017-Nov-15 06:00N 53°52' E 008°43'0 0.4
2017-Nov-15 05:29N 53°52' E 008°43'0 0.0
2017-Nov-15 04:59N 53°52' E 008°43'0 0.0
2017-Nov-15 04:29N 53°52' E 008°43'0 0.0
2017-Nov-15 03:59N 53°52' E 008°43'0 0.0
2017-Nov-15 03:29N 53°52' E 008°43'0 0.0
2017-Nov-15 02:59N 53°52' E 008°43'0 0.0
2017-Nov-15 02:29N 53°52' E 008°43'0 0.0
2017-Nov-15 01:59N 53°52' E 008°43'0 0.0
2017-Nov-15 01:26N 53°52' E 008°43'0 0.0
2017-Nov-15 00:59N 53°52' E 008°43'0 0.0
2017-Nov-15 00:29N 53°52' E 008°43'0 0.0
2017-Nov-14 23:59N 53°52' E 008°43'0 0.0
2017-Nov-14 23:29N 53°52' E 008°43'0 0.0
2017-Nov-14 22:59N 53°52' E 008°43'0 0.0
2017-Nov-14 22:29N 53°52' E 008°43'0 0.0
2017-Nov-14 21:59N 53°52' E 008°43'0 0.0
2017-Nov-14 21:29N 53°52' E 008°43'0 0.0
2017-Nov-14 20:59N 53°52' E 008°43'0 0.0
2017-Nov-14 20:29N 53°52' E 008°43'0 0.0
2017-Nov-14 19:59N 53°52' E 008°43'0 0.0
2017-Nov-14 19:29N 53°52' E 008°43'0 0.0
2017-Nov-14 18:59N 53°52' E 008°43'0 0.0
2017-Nov-14 18:29N 53°52' E 008°43'0 0.0
2017-Nov-14 17:59N 53°52' E 008°43'0 0.0
2017-Nov-14 17:30N 53°52' E 008°43'1 1.4
2017-Nov-14 17:00N 53°52' E 008°44'612.6
2017-Nov-14 16:31N 53°51' E 008°54'714.6
2017-Nov-14 16:00N 53°53' E 009°06'2 3.7
2017-Nov-14 15:30N 53°54' E 009°09'2 3.1
2017-Nov-14 15:00N 53°55' E 009°11'4 8.5
2017-Nov-14 14:31N 53°58' E 009°15'5 8.8
2017-Nov-14 14:00N 54°02' E 009°18'5 9.0
2017-Nov-14 13:28N 54°07' E 009°20'4 8.3
2017-Nov-14 13:00N 54°10' E 009°24'5 9.0
2017-Nov-14 12:30N 54°11' E 009°31'4 8.7
2017-Nov-14 12:00N 54°14' E 009°37'4 7.6
2017-Nov-14 11:30N 54°17' E 009°40'4 7.6
2017-Nov-14 10:59N 54°20' E 009°45'  
Track history (hours):
 
Tides and Currents Weather Stations Pressure Air Temp Water Temp Dewpoint Dewpoint Depression Visibility Wind Speed Wind Dir Waves Ship Positions

Van Kinsbergen

Last reported at 2017-Nov-19 18:44 UTC. Time now 2017-Nov-22 03:40 UTC.
Position N 53°29' E 006°50'.

Length 40 m; draft 3.4 m.

Type: Military. MMSI: 244736000.

Date/timePositionNaut miles runAvg speedWind from/ knotsBaromVisibWave heightAir tempDewpointWater temp
2017-Nov-19 18:44N 53°29' E 006°50'2 5.3
2017-Nov-19 18:22N 53°28' E 006°52'2 4.7
2017-Nov-19 18:00N 53°26' E 006°55'3 5.3
2017-Nov-19 17:30N 53°24' E 006°57'3 6.0
2017-Nov-19 17:00N 53°22' E 006°59'3 5.5
2017-Nov-19 16:30N 53°19' E 007°00'2 4.8
2017-Nov-19 16:00N 53°19' E 006°56'1 1.6
2017-Nov-19 15:30N 53°19' E 006°55'0 0.8
2017-Nov-19 14:58N 53°19' E 006°55'0 0.0
2017-Nov-19 14:25N 53°19' E 006°55'0 0.0
2017-Nov-19 13:55N 53°19' E 006°55'0 0.0
2017-Nov-19 13:28N 53°19' E 006°55'0 0.0
2017-Nov-19 12:58N 53°19' E 006°55'0 0.0
2017-Nov-19 12:28N 53°19' E 006°55'0 0.0
2017-Nov-19 11:52N 53°19' E 006°55'0 0.0
2017-Nov-19 11:25N 53°19' E 006°55'0 0.0
2017-Nov-19 10:58N 53°19' E 006°55'0 0.0
2017-Nov-19 10:28N 53°19' E 006°55'0 0.0
2017-Nov-19 09:58N 53°19' E 006°55'0 0.0
2017-Nov-19 09:28N 53°19' E 006°55'  
2017-Nov-16 06:02N 53°19' E 006°55'0 0.0
2017-Nov-16 05:59N 53°19' E 006°55'0 0.0
2017-Nov-16 05:29N 53°19' E 006°55'0 0.0
2017-Nov-16 04:59N 53°19' E 006°55'0 0.0
2017-Nov-16 04:29N 53°19' E 006°55'0 0.0
2017-Nov-16 03:59N 53°19' E 006°55'0 0.0
2017-Nov-16 03:29N 53°19' E 006°55'0 0.0
2017-Nov-16 02:56N 53°19' E 006°55'0 0.0
2017-Nov-16 02:26N 53°19' E 006°55'0 0.0
2017-Nov-16 01:59N 53°19' E 006°55'0 0.0
2017-Nov-16 01:29N 53°19' E 006°55'0 0.0
2017-Nov-16 00:59N 53°19' E 006°55'0 0.0
2017-Nov-16 00:29N 53°19' E 006°55'0 0.0
2017-Nov-15 23:59N 53°19' E 006°55'0 0.0
2017-Nov-15 23:29N 53°19' E 006°55'0 0.0
2017-Nov-15 22:59N 53°19' E 006°55'0 0.0
2017-Nov-15 22:29N 53°19' E 006°55'0 0.0
2017-Nov-15 21:59N 53°19' E 006°55'0 0.0
2017-Nov-15 21:29N 53°19' E 006°55'0 0.0
2017-Nov-15 20:59N 53°19' E 006°55'0 0.0
2017-Nov-15 20:29N 53°19' E 006°55'0 0.0
2017-Nov-15 19:59N 53°19' E 006°55'0 0.0
2017-Nov-15 19:29N 53°19' E 006°55'0 0.0
2017-Nov-15 18:59N 53°19' E 006°55'0 0.0
2017-Nov-15 18:29N 53°19' E 006°55'0 0.0
2017-Nov-15 17:59N 53°19' E 006°55'0 0.0
2017-Nov-15 17:30N 53°19' E 006°55'1 1.7
2017-Nov-15 17:00N 53°19' E 006°56'0 0.8
2017-Nov-15 16:30N 53°19' E 006°57'2 4.7
2017-Nov-15 16:00N 53°21' E 006°59'712.3
2017-Nov-15 15:26N 53°27' E 006°53'39 7.2
2017-Nov-15 10:01N 53°50' E 007°46'012.3
2017-Nov-15 10:00N 53°51' E 007°46'611.4
2017-Nov-15 09:30N 53°54' E 007°54'611.7
2017-Nov-15 09:00N 53°59' E 007°57'5 9.9
2017-Nov-15 08:30N 54°01' E 008°06'611.3
2017-Nov-15 08:00N 54°01' E 008°15'510.8
2017-Nov-15 07:30N 53°60' E 008°24'5 9.7
2017-Nov-15 07:00N 53°58' E 008°32'4 8.9
2017-Nov-15 06:30N 53°57' E 008°39'5 9.7
2017-Nov-15 06:00N 53°52' E 008°43'0 0.4
2017-Nov-15 05:29N 53°52' E 008°43'0 0.0
2017-Nov-15 04:59N 53°52' E 008°43'0 0.0
2017-Nov-15 04:29N 53°52' E 008°43'0 0.0
2017-Nov-15 03:59N 53°52' E 008°43'0 0.0
2017-Nov-15 03:29N 53°52' E 008°43'0 0.0
2017-Nov-15 02:59N 53°52' E 008°43'0 0.0
2017-Nov-15 02:29N 53°52' E 008°43'0 0.0
2017-Nov-15 01:59N 53°52' E 008°43'0 0.0
2017-Nov-15 01:26N 53°52' E 008°43'0 0.0
2017-Nov-15 00:59N 53°52' E 008°43'0 0.0
2017-Nov-15 00:29N 53°52' E 008°43'0 0.0
2017-Nov-14 23:59N 53°52' E 008°43'0 0.0
2017-Nov-14 23:29N 53°52' E 008°43'0 0.0
2017-Nov-14 22:59N 53°52' E 008°43'0 0.0
2017-Nov-14 22:29N 53°52' E 008°43'0 0.0
2017-Nov-14 21:59N 53°52' E 008°43'0 0.0
2017-Nov-14 21:29N 53°52' E 008°43'0 0.0
2017-Nov-14 20:59N 53°52' E 008°43'0 0.0
2017-Nov-14 20:29N 53°52' E 008°43'0 0.0
2017-Nov-14 19:59N 53°52' E 008°43'0 0.0
2017-Nov-14 19:29N 53°52' E 008°43'0 0.0
2017-Nov-14 18:59N 53°52' E 008°43'0 0.0
2017-Nov-14 18:29N 53°52' E 008°43'0 0.0
2017-Nov-14 17:59N 53°52' E 008°43'0 0.0
2017-Nov-14 17:30N 53°52' E 008°43'1 1.4
2017-Nov-14 17:00N 53°52' E 008°44'612.6
2017-Nov-14 16:31N 53°51' E 008°54'714.6
2017-Nov-14 16:00N 53°53' E 009°06'2 3.7
2017-Nov-14 15:30N 53°54' E 009°09'2 3.1
2017-Nov-14 15:00N 53°55' E 009°11'4 8.5
2017-Nov-14 14:31N 53°58' E 009°15'5 8.8
2017-Nov-14 14:00N 54°02' E 009°18'5 9.0
2017-Nov-14 13:28N 54°07' E 009°20'4 8.3
2017-Nov-14 13:00N 54°10' E 009°24'5 9.0
2017-Nov-14 12:30N 54°11' E 009°31'4 8.7
2017-Nov-14 12:00N 54°14' E 009°37'4 7.6
2017-Nov-14 11:30N 54°17' E 009°40'4 7.6
2017-Nov-14 10:59N 54°20' E 009°45'  

Dump ship's entire track history